sensor_id;sensor_type;location;lat;lon;timestamp;temperature;humidity
10030;DHT22;5055;52.054;8.524;2024-01-16T00:02:19;1.10;97.00
10030;DHT22;5055;52.054;8.524;2024-01-16T00:04:47;1.10;97.00
10030;DHT22;5055;52.054;8.524;2024-01-16T00:07:15;1.10;97.00
10030;DHT22;5055;52.054;8.524;2024-01-16T00:09:43;1.10;97.00
10030;DHT22;5055;52.054;8.524;2024-01-16T00:12:12;1.10;97.00
10030;DHT22;5055;52.054;8.524;2024-01-16T00:14:41;1.10;97.00
10030;DHT22;5055;52.054;8.524;2024-01-16T00:17:09;1.10;97.00
10030;DHT22;5055;52.054;8.524;2024-01-16T00:19:40;1.10;97.00
10030;DHT22;5055;52.054;8.524;2024-01-16T00:22:08;1.10;97.00
10030;DHT22;5055;52.054;8.524;2024-01-16T00:24:36;1.10;97.00
10030;DHT22;5055;52.054;8.524;2024-01-16T00:27:04;1.10;97.00
10030;DHT22;5055;52.054;8.524;2024-01-16T00:29:37;1.10;97.00
10030;DHT22;5055;52.054;8.524;2024-01-16T00:32:05;1.00;97.00
10030;DHT22;5055;52.054;8.524;2024-01-16T00:34:34;1.00;97.00
10030;DHT22;5055;52.054;8.524;2024-01-16T00:37:03;1.00;97.00
10030;DHT22;5055;52.054;8.524;2024-01-16T00:39:32;1.00;97.00
10030;DHT22;5055;52.054;8.524;2024-01-16T00:42:01;1.00;97.00
10030;DHT22;5055;52.054;8.524;2024-01-16T00:44:29;1.00;97.00
10030;DHT22;5055;52.054;8.524;2024-01-16T00:46:57;1.00;97.00
10030;DHT22;5055;52.054;8.524;2024-01-16T00:49:28;1.00;97.00
10030;DHT22;5055;52.054;8.524;2024-01-16T00:51:57;0.90;97.00
10030;DHT22;5055;52.054;8.524;2024-01-16T00:54:26;0.90;97.00
10030;DHT22;5055;52.054;8.524;2024-01-16T00:56:54;1.00;97.00
10030;DHT22;5055;52.054;8.524;2024-01-16T00:59:26;1.00;97.00
10030;DHT22;5055;52.054;8.524;2024-01-16T01:01:54;1.00;97.00
10030;DHT22;5055;52.054;8.524;2024-01-16T01:04:22;1.00;97.00
10030;DHT22;5055;52.054;8.524;2024-01-16T01:06:50;1.00;97.00
10030;DHT22;5055;52.054;8.524;2024-01-16T01:09:19;1.00;97.00
10030;DHT22;5055;52.054;8.524;2024-01-16T01:11:48;1.00;97.00
10030;DHT22;5055;52.054;8.524;2024-01-16T01:14:16;1.00;97.00
10030;DHT22;5055;52.054;8.524;2024-01-16T01:16:44;0.90;97.00
10030;DHT22;5055;52.054;8.524;2024-01-16T01:19:13;0.90;97.00
10030;DHT22;5055;52.054;8.524;2024-01-16T01:21:41;0.90;97.00
10030;DHT22;5055;52.054;8.524;2024-01-16T01:24:09;0.90;97.00
10030;DHT22;5055;52.054;8.524;2024-01-16T01:26:37;0.80;97.00
10030;DHT22;5055;52.054;8.524;2024-01-16T01:29:08;0.80;97.00
10030;DHT22;5055;52.054;8.524;2024-01-16T01:31:38;0.80;97.00
10030;DHT22;5055;52.054;8.524;2024-01-16T01:34:06;0.70;97.00
10030;DHT22;5055;52.054;8.524;2024-01-16T01:36:34;0.70;97.00
10030;DHT22;5055;52.054;8.524;2024-01-16T01:39:02;0.70;97.00
10030;DHT22;5055;52.054;8.524;2024-01-16T01:41:30;0.70;97.00
10030;DHT22;5055;52.054;8.524;2024-01-16T01:43:58;0.60;97.00
10030;DHT22;5055;52.054;8.524;2024-01-16T01:46:28;0.60;97.00
10030;DHT22;5055;52.054;8.524;2024-01-16T01:48:57;0.60;97.00
10030;DHT22;5055;52.054;8.524;2024-01-16T01:51:25;0.60;97.00
10030;DHT22;5055;52.054;8.524;2024-01-16T01:53:53;0.60;97.00
10030;DHT22;5055;52.054;8.524;2024-01-16T01:56:21;0.60;97.00
10030;DHT22;5055;52.054;8.524;2024-01-16T01:58:53;0.70;97.00
10030;DHT22;5055;52.054;8.524;2024-01-16T02:01:23;0.70;97.00
10030;DHT22;5055;52.054;8.524;2024-01-16T02:03:55;0.70;97.00
10030;DHT22;5055;52.054;8.524;2024-01-16T02:06:23;0.80;97.00
10030;DHT22;5055;52.054;8.524;2024-01-16T02:08:51;0.80;97.00
10030;DHT22;5055;52.054;8.524;2024-01-16T02:11:20;0.80;97.00
10030;DHT22;5055;52.054;8.524;2024-01-16T02:13:48;0.80;97.00
10030;DHT22;5055;52.054;8.524;2024-01-16T02:16:20;0.70;97.00
10030;DHT22;5055;52.054;8.524;2024-01-16T02:18:48;0.70;97.00
10030;DHT22;5055;52.054;8.524;2024-01-16T02:21:21;0.80;97.00
10030;DHT22;5055;52.054;8.524;2024-01-16T02:23:50;0.80;97.00
10030;DHT22;5055;52.054;8.524;2024-01-16T02:26:19;0.80;97.00
10030;DHT22;5055;52.054;8.524;2024-01-16T02:28:47;0.80;97.00
10030;DHT22;5055;52.054;8.524;2024-01-16T02:31:15;0.80;97.00
10030;DHT22;5055;52.054;8.524;2024-01-16T02:33:44;0.80;97.00
10030;DHT22;5055;52.054;8.524;2024-01-16T02:36:13;0.90;97.00
10030;DHT22;5055;52.054;8.524;2024-01-16T02:38:41;0.90;97.00
10030;DHT22;5055;52.054;8.524;2024-01-16T02:41:15;0.80;97.00
10030;DHT22;5055;52.054;8.524;2024-01-16T02:43:44;0.80;97.00
10030;DHT22;5055;52.054;8.524;2024-01-16T02:46:12;0.80;97.00
10030;DHT22;5055;52.054;8.524;2024-01-16T02:48:40;0.80;97.00
10030;DHT22;5055;52.054;8.524;2024-01-16T02:51:09;0.80;97.00
10030;DHT22;5055;52.054;8.524;2024-01-16T02:53:37;0.80;97.00
10030;DHT22;5055;52.054;8.524;2024-01-16T02:56:06;0.80;97.00
10030;DHT22;5055;52.054;8.524;2024-01-16T02:58:37;0.80;97.00
10030;DHT22;5055;52.054;8.524;2024-01-16T03:01:05;0.70;97.00
10030;DHT22;5055;52.054;8.524;2024-01-16T03:03:34;0.80;97.00
10030;DHT22;5055;52.054;8.524;2024-01-16T03:06:03;0.80;97.00
10030;DHT22;5055;52.054;8.524;2024-01-16T03:08:31;0.80;97.00
10030;DHT22;5055;52.054;8.524;2024-01-16T03:10:59;0.80;97.00
10030;DHT22;5055;52.054;8.524;2024-01-16T03:13:28;0.70;97.00
10030;DHT22;5055;52.054;8.524;2024-01-16T03:15:57;0.70;97.00
10030;DHT22;5055;52.054;8.524;2024-01-16T03:18:25;0.70;97.00
10030;DHT22;5055;52.054;8.524;2024-01-16T03:20:54;0.70;97.00
10030;DHT22;5055;52.054;8.524;2024-01-16T03:23:22;0.70;97.00
10030;DHT22;5055;52.054;8.524;2024-01-16T03:25:50;0.70;97.00
10030;DHT22;5055;52.054;8.524;2024-01-16T03:28:18;0.70;97.00
10030;DHT22;5055;52.054;8.524;2024-01-16T03:30:47;0.70;97.00
10030;DHT22;5055;52.054;8.524;2024-01-16T03:33:17;0.70;97.00
10030;DHT22;5055;52.054;8.524;2024-01-16T03:35:45;0.70;97.00
10030;DHT22;5055;52.054;8.524;2024-01-16T03:38:14;0.70;97.00
10030;DHT22;5055;52.054;8.524;2024-01-16T03:40:42;0.70;97.00
10030;DHT22;5055;52.054;8.524;2024-01-16T03:43:11;0.70;97.00
10030;DHT22;5055;52.054;8.524;2024-01-16T03:45:39;0.70;97.00
10030;DHT22;5055;52.054;8.524;2024-01-16T03:48:07;0.70;97.00
10030;DHT22;5055;52.054;8.524;2024-01-16T03:50:36;0.70;97.00
10030;DHT22;5055;52.054;8.524;2024-01-16T03:53:04;0.70;97.00
10030;DHT22;5055;52.054;8.524;2024-01-16T03:55:33;0.70;97.00
10030;DHT22;5055;52.054;8.524;2024-01-16T03:58:01;0.70;97.00
10030;DHT22;5055;52.054;8.524;2024-01-16T04:00:29;0.70;97.00
10030;DHT22;5055;52.054;8.524;2024-01-16T04:02:57;0.70;97.00
10030;DHT22;5055;52.054;8.524;2024-01-16T04:05:25;0.70;97.00
10030;DHT22;5055;52.054;8.524;2024-01-16T04:07:56;0.70;97.00
10030;DHT22;5055;52.054;8.524;2024-01-16T04:10:24;0.70;97.00
10030;DHT22;5055;52.054;8.524;2024-01-16T04:12:52;0.70;97.00
10030;DHT22;5055;52.054;8.524;2024-01-16T04:15:20;0.70;97.00
10030;DHT22;5055;52.054;8.524;2024-01-16T04:17:49;0.70;97.00
10030;DHT22;5055;52.054;8.524;2024-01-16T04:20:17;0.60;97.00
10030;DHT22;5055;52.054;8.524;2024-01-16T04:22:46;0.60;97.00
10030;DHT22;5055;52.054;8.524;2024-01-16T04:25:15;0.60;97.00
10030;DHT22;5055;52.054;8.524;2024-01-16T04:27:43;0.60;97.00
10030;DHT22;5055;52.054;8.524;2024-01-16T04:30:12;0.60;97.00
10030;DHT22;5055;52.054;8.524;2024-01-16T04:32:40;0.60;97.00
10030;DHT22;5055;52.054;8.524;2024-01-16T04:35:09;0.60;97.00
10030;DHT22;5055;52.054;8.524;2024-01-16T04:37:37;0.60;97.00
10030;DHT22;5055;52.054;8.524;2024-01-16T04:40:06;0.60;97.00
10030;DHT22;5055;52.054;8.524;2024-01-16T04:42:35;0.60;97.00
10030;DHT22;5055;52.054;8.524;2024-01-16T04:45:04;0.60;97.00
10030;DHT22;5055;52.054;8.524;2024-01-16T04:47:33;0.60;97.00
10030;DHT22;5055;52.054;8.524;2024-01-16T04:50:01;0.60;97.00
10030;DHT22;5055;52.054;8.524;2024-01-16T04:52:30;0.60;97.00
10030;DHT22;5055;52.054;8.524;2024-01-16T04:54:58;0.60;97.00
10030;DHT22;5055;52.054;8.524;2024-01-16T04:57:27;0.50;97.00
10030;DHT22;5055;52.054;8.524;2024-01-16T04:59:56;0.60;97.00
10030;DHT22;5055;52.054;8.524;2024-01-16T05:02:24;0.50;97.00
10030;DHT22;5055;52.054;8.524;2024-01-16T05:04:52;0.50;97.00
10030;DHT22;5055;52.054;8.524;2024-01-16T05:07:23;0.50;97.00
10030;DHT22;5055;52.054;8.524;2024-01-16T05:09:51;0.50;97.00
10030;DHT22;5055;52.054;8.524;2024-01-16T05:12:20;0.50;97.00
10030;DHT22;5055;52.054;8.524;2024-01-16T05:14:49;0.50;97.00
10030;DHT22;5055;52.054;8.524;2024-01-16T05:17:19;0.50;97.00
10030;DHT22;5055;52.054;8.524;2024-01-16T05:19:47;0.50;97.00
10030;DHT22;5055;52.054;8.524;2024-01-16T05:22:15;0.50;97.00
10030;DHT22;5055;52.054;8.524;2024-01-16T05:24:43;0.50;97.00
10030;DHT22;5055;52.054;8.524;2024-01-16T05:27:11;0.50;97.00
10030;DHT22;5055;52.054;8.524;2024-01-16T05:29:40;0.50;97.00
10030;DHT22;5055;52.054;8.524;2024-01-16T05:32:11;0.50;97.00
10030;DHT22;5055;52.054;8.524;2024-01-16T05:34:40;0.50;97.00
10030;DHT22;5055;52.054;8.524;2024-01-16T05:37:08;0.50;97.00
10030;DHT22;5055;52.054;8.524;2024-01-16T05:39:37;0.50;97.00
10030;DHT22;5055;52.054;8.524;2024-01-16T05:42:05;0.50;97.00
10030;DHT22;5055;52.054;8.524;2024-01-16T05:44:33;0.50;97.00
10030;DHT22;5055;52.054;8.524;2024-01-16T05:47:02;0.50;97.00
10030;DHT22;5055;52.054;8.524;2024-01-16T05:49:30;0.50;97.00
10030;DHT22;5055;52.054;8.524;2024-01-16T05:51:59;0.50;97.00
10030;DHT22;5055;52.054;8.524;2024-01-16T05:54:28;0.50;97.00
10030;DHT22;5055;52.054;8.524;2024-01-16T05:56:56;0.50;97.00
10030;DHT22;5055;52.054;8.524;2024-01-16T05:59:24;0.50;97.00
10030;DHT22;5055;52.054;8.524;2024-01-16T06:01:52;0.50;97.00
10030;DHT22;5055;52.054;8.524;2024-01-16T06:04:20;0.50;97.00
10030;DHT22;5055;52.054;8.524;2024-01-16T06:06:48;0.50;97.00
10030;DHT22;5055;52.054;8.524;2024-01-16T06:09:18;0.50;97.00
10030;DHT22;5055;52.054;8.524;2024-01-16T06:11:46;0.50;97.00
10030;DHT22;5055;52.054;8.524;2024-01-16T06:14:15;0.50;97.00
10030;DHT22;5055;52.054;8.524;2024-01-16T06:16:48;0.50;97.00
10030;DHT22;5055;52.054;8.524;2024-01-16T06:19:17;0.50;97.00
10030;DHT22;5055;52.054;8.524;2024-01-16T06:21:46;0.60;97.00
10030;DHT22;5055;52.054;8.524;2024-01-16T06:24:14;0.60;97.00
10030;DHT22;5055;52.054;8.524;2024-01-16T06:26:43;0.60;97.00
10030;DHT22;5055;52.054;8.524;2024-01-16T06:29:12;0.60;97.00
10030;DHT22;5055;52.054;8.524;2024-01-16T06:31:54;0.60;97.00
10030;DHT22;5055;52.054;8.524;2024-01-16T06:34:22;0.60;97.00
10030;DHT22;5055;52.054;8.524;2024-01-16T06:36:50;0.60;97.00
10030;DHT22;5055;52.054;8.524;2024-01-16T06:39:19;0.60;97.00
10030;DHT22;5055;52.054;8.524;2024-01-16T06:41:49;0.60;97.00
10030;DHT22;5055;52.054;8.524;2024-01-16T06:44:17;0.60;97.00
10030;DHT22;5055;52.054;8.524;2024-01-16T06:46:46;0.60;97.00
10030;DHT22;5055;52.054;8.524;2024-01-16T06:49:14;0.60;97.00
10030;DHT22;5055;52.054;8.524;2024-01-16T06:51:43;0.60;97.00
10030;DHT22;5055;52.054;8.524;2024-01-16T06:54:11;0.60;97.00
10030;DHT22;5055;52.054;8.524;2024-01-16T06:56:39;0.60;97.00
10030;DHT22;5055;52.054;8.524;2024-01-16T06:59:09;0.60;97.00
10030;DHT22;5055;52.054;8.524;2024-01-16T07:01:38;0.60;97.00
10030;DHT22;5055;52.054;8.524;2024-01-16T07:04:07;0.60;97.00
10030;DHT22;5055;52.054;8.524;2024-01-16T07:06:35;0.60;97.00
10030;DHT22;5055;52.054;8.524;2024-01-16T07:09:04;0.50;97.00
10030;DHT22;5055;52.054;8.524;2024-01-16T07:11:32;0.60;97.00
10030;DHT22;5055;52.054;8.524;2024-01-16T07:14:01;0.50;97.00
10030;DHT22;5055;52.054;8.524;2024-01-16T07:16:31;0.50;97.00
10030;DHT22;5055;52.054;8.524;2024-01-16T07:18:59;0.50;97.00
10030;DHT22;5055;52.054;8.524;2024-01-16T07:21:28;0.50;97.00
10030;DHT22;5055;52.054;8.524;2024-01-16T07:23:56;0.60;97.00
10030;DHT22;5055;52.054;8.524;2024-01-16T07:26:25;0.50;97.00
10030;DHT22;5055;52.054;8.524;2024-01-16T07:28:53;0.60;97.00
10030;DHT22;5055;52.054;8.524;2024-01-16T07:31:22;0.60;97.00
10030;DHT22;5055;52.054;8.524;2024-01-16T07:33:51;0.60;97.00
10030;DHT22;5055;52.054;8.524;2024-01-16T07:36:20;0.60;97.00
10030;DHT22;5055;52.054;8.524;2024-01-16T07:38:48;0.60;97.00
10030;DHT22;5055;52.054;8.524;2024-01-16T07:41:16;0.60;97.00
10030;DHT22;5055;52.054;8.524;2024-01-16T07:43:45;0.60;97.00
10030;DHT22;5055;52.054;8.524;2024-01-16T07:46:16;0.60;97.00
10030;DHT22;5055;52.054;8.524;2024-01-16T07:48:44;0.60;97.00
10030;DHT22;5055;52.054;8.524;2024-01-16T07:51:14;0.70;97.00
10030;DHT22;5055;52.054;8.524;2024-01-16T07:53:42;0.70;97.00
10030;DHT22;5055;52.054;8.524;2024-01-16T07:56:10;0.70;97.00
10030;DHT22;5055;52.054;8.524;2024-01-16T07:58:39;0.70;97.00
10030;DHT22;5055;52.054;8.524;2024-01-16T08:01:07;0.70;97.00
10030;DHT22;5055;52.054;8.524;2024-01-16T08:03:35;0.70;97.00
10030;DHT22;5055;52.054;8.524;2024-01-16T08:06:04;0.70;97.00
10030;DHT22;5055;52.054;8.524;2024-01-16T08:08:34;0.70;97.00
10030;DHT22;5055;52.054;8.524;2024-01-16T08:11:02;0.70;97.00
10030;DHT22;5055;52.054;8.524;2024-01-16T08:13:30;0.70;97.00
10030;DHT22;5055;52.054;8.524;2024-01-16T08:15:59;0.80;97.00
10030;DHT22;5055;52.054;8.524;2024-01-16T08:18:27;0.80;97.00
10030;DHT22;5055;52.054;8.524;2024-01-16T08:20:55;0.80;97.00
10030;DHT22;5055;52.054;8.524;2024-01-16T08:23:23;0.80;97.00
10030;DHT22;5055;52.054;8.524;2024-01-16T08:25:53;0.80;97.00
10030;DHT22;5055;52.054;8.524;2024-01-16T08:28:21;0.80;97.00
10030;DHT22;5055;52.054;8.524;2024-01-16T08:30:51;0.80;97.00
10030;DHT22;5055;52.054;8.524;2024-01-16T08:33:19;0.80;97.00
10030;DHT22;5055;52.054;8.524;2024-01-16T08:35:59;0.80;97.00
10030;DHT22;5055;52.054;8.524;2024-01-16T08:38:28;0.80;97.00
10030;DHT22;5055;52.054;8.524;2024-01-16T08:40:57;0.80;97.00
10030;DHT22;5055;52.054;8.524;2024-01-16T08:43:25;0.80;97.00
10030;DHT22;5055;52.054;8.524;2024-01-16T08:45:53;0.80;97.00
10030;DHT22;5055;52.054;8.524;2024-01-16T08:48:22;0.80;97.00
10030;DHT22;5055;52.054;8.524;2024-01-16T08:50:51;0.80;97.00
10030;DHT22;5055;52.054;8.524;2024-01-16T08:53:21;0.80;97.00
10030;DHT22;5055;52.054;8.524;2024-01-16T08:55:50;0.90;97.00
10030;DHT22;5055;52.054;8.524;2024-01-16T08:58:20;0.90;97.00
10030;DHT22;5055;52.054;8.524;2024-01-16T09:00:48;0.90;97.00
10030;DHT22;5055;52.054;8.524;2024-01-16T09:03:16;0.90;97.00
10030;DHT22;5055;52.054;8.524;2024-01-16T09:05:45;1.00;97.00
10030;DHT22;5055;52.054;8.524;2024-01-16T09:08:13;1.00;97.00
10030;DHT22;5055;52.054;8.524;2024-01-16T09:10:41;1.00;97.00
10030;DHT22;5055;52.054;8.524;2024-01-16T09:13:09;1.00;97.00
10030;DHT22;5055;52.054;8.524;2024-01-16T09:15:40;1.00;97.00
10030;DHT22;5055;52.054;8.524;2024-01-16T09:18:08;1.00;97.00
10030;DHT22;5055;52.054;8.524;2024-01-16T09:20:36;1.00;97.00
10030;DHT22;5055;52.054;8.524;2024-01-16T09:23:04;1.00;97.00
10030;DHT22;5055;52.054;8.524;2024-01-16T09:25:33;1.00;97.00
10030;DHT22;5055;52.054;8.524;2024-01-16T09:28:02;1.00;97.00
10030;DHT22;5055;52.054;8.524;2024-01-16T09:30:30;1.00;97.00
10030;DHT22;5055;52.054;8.524;2024-01-16T09:32:59;1.00;97.00
10030;DHT22;5055;52.054;8.524;2024-01-16T09:35:28;1.10;97.00
10030;DHT22;5055;52.054;8.524;2024-01-16T09:37:56;1.10;97.00
10030;DHT22;5055;52.054;8.524;2024-01-16T09:40:26;1.10;97.00
10030;DHT22;5055;52.054;8.524;2024-01-16T09:42:54;1.10;97.00
10030;DHT22;5055;52.054;8.524;2024-01-16T09:45:22;1.10;97.00
10030;DHT22;5055;52.054;8.524;2024-01-16T09:47:52;1.10;97.00
10030;DHT22;5055;52.054;8.524;2024-01-16T09:50:22;1.10;97.00
10030;DHT22;5055;52.054;8.524;2024-01-16T09:52:51;1.10;97.00
10030;DHT22;5055;52.054;8.524;2024-01-16T09:55:21;1.10;97.00
10030;DHT22;5055;52.054;8.524;2024-01-16T09:57:52;1.10;97.00
10030;DHT22;5055;52.054;8.524;2024-01-16T10:00:21;1.10;97.00
10030;DHT22;5055;52.054;8.524;2024-01-16T10:02:50;1.10;97.00
10030;DHT22;5055;52.054;8.524;2024-01-16T10:05:18;1.20;97.00
10030;DHT22;5055;52.054;8.524;2024-01-16T10:07:50;1.20;97.00
10030;DHT22;5055;52.054;8.524;2024-01-16T10:10:19;1.20;97.00
10030;DHT22;5055;52.054;8.524;2024-01-16T10:13:04;1.20;97.00
10030;DHT22;5055;52.054;8.524;2024-01-16T10:15:32;1.20;97.00
10030;DHT22;5055;52.054;8.524;2024-01-16T10:18:01;1.20;97.00
10030;DHT22;5055;52.054;8.524;2024-01-16T10:20:33;1.20;97.00
10030;DHT22;5055;52.054;8.524;2024-01-16T10:23:03;1.20;97.00
10030;DHT22;5055;52.054;8.524;2024-01-16T10:25:31;1.20;97.00
10030;DHT22;5055;52.054;8.524;2024-01-16T10:28:04;1.20;97.00
10030;DHT22;5055;52.054;8.524;2024-01-16T10:30:34;1.20;97.00
10030;DHT22;5055;52.054;8.524;2024-01-16T10:33:13;1.20;97.00
10030;DHT22;5055;52.054;8.524;2024-01-16T10:35:43;1.20;97.00
10030;DHT22;5055;52.054;8.524;2024-01-16T10:38:20;1.20;97.00
10030;DHT22;5055;52.054;8.524;2024-01-16T10:41:04;1.20;97.00
10030;DHT22;5055;52.054;8.524;2024-01-16T10:43:33;1.20;97.00
10030;DHT22;5055;52.054;8.524;2024-01-16T10:46:07;1.20;97.00
10030;DHT22;5055;52.054;8.524;2024-01-16T10:48:36;1.20;97.00
10030;DHT22;5055;52.054;8.524;2024-01-16T10:51:06;1.20;97.00
10030;DHT22;5055;52.054;8.524;2024-01-16T10:53:37;1.30;97.00
10030;DHT22;5055;52.054;8.524;2024-01-16T10:56:10;1.20;97.00
10030;DHT22;5055;52.054;8.524;2024-01-16T10:58:41;1.30;97.00
10030;DHT22;5055;52.054;8.524;2024-01-16T11:01:11;1.30;97.00
10030;DHT22;5055;52.054;8.524;2024-01-16T11:03:48;1.30;97.00
10030;DHT22;5055;52.054;8.524;2024-01-16T11:06:18;1.30;97.00
10030;DHT22;5055;52.054;8.524;2024-01-16T11:08:48;1.30;97.00
10030;DHT22;5055;52.054;8.524;2024-01-16T11:11:19;1.30;97.00
10030;DHT22;5055;52.054;8.524;2024-01-16T11:13:48;1.20;97.00
10030;DHT22;5055;52.054;8.524;2024-01-16T11:16:17;1.20;97.00
10030;DHT22;5055;52.054;8.524;2024-01-16T11:18:46;1.20;97.00
10030;DHT22;5055;52.054;8.524;2024-01-16T11:21:15;1.20;97.00
10030;DHT22;5055;52.054;8.524;2024-01-16T11:23:45;1.20;97.00
10030;DHT22;5055;52.054;8.524;2024-01-16T11:26:34;1.20;97.00
10030;DHT22;5055;52.054;8.524;2024-01-16T11:29:33;1.30;97.00
10030;DHT22;5055;52.054;8.524;2024-01-16T11:32:01;1.30;97.00
10030;DHT22;5055;52.054;8.524;2024-01-16T11:34:54;1.30;97.00
10030;DHT22;5055;52.054;8.524;2024-01-16T11:37:27;1.30;97.00
10030;DHT22;5055;52.054;8.524;2024-01-16T11:40:20;1.30;97.00
10030;DHT22;5055;52.054;8.524;2024-01-16T11:42:51;1.30;97.00
10030;DHT22;5055;52.054;8.524;2024-01-16T11:45:48;1.40;97.00
10030;DHT22;5055;52.054;8.524;2024-01-16T11:48:17;1.40;97.00
10030;DHT22;5055;52.054;8.524;2024-01-16T11:50:46;1.40;97.00
10030;DHT22;5055;52.054;8.524;2024-01-16T11:53:35;1.40;97.00
10030;DHT22;5055;52.054;8.524;2024-01-16T11:56:39;1.40;97.00
10030;DHT22;5055;52.054;8.524;2024-01-16T11:59:42;1.40;97.00
10030;DHT22;5055;52.054;8.524;2024-01-16T12:02:21;1.40;97.00
10030;DHT22;5055;52.054;8.524;2024-01-16T12:04:53;1.40;97.00
10030;DHT22;5055;52.054;8.524;2024-01-16T12:07:23;1.40;97.00
10030;DHT22;5055;52.054;8.524;2024-01-16T12:09:51;1.40;97.00
10030;DHT22;5055;52.054;8.524;2024-01-16T12:12:19;1.30;97.00
10030;DHT22;5055;52.054;8.524;2024-01-16T12:14:52;1.30;97.00
10030;DHT22;5055;52.054;8.524;2024-01-16T12:17:21;1.30;97.00
10030;DHT22;5055;52.054;8.524;2024-01-16T12:19:49;1.30;97.00
10030;DHT22;5055;52.054;8.524;2024-01-16T12:22:18;1.20;97.00
10030;DHT22;5055;52.054;8.524;2024-01-16T12:24:48;1.20;97.00
10030;DHT22;5055;52.054;8.524;2024-01-16T12:27:16;1.10;97.00
10030;DHT22;5055;52.054;8.524;2024-01-16T12:29:44;1.10;97.00
10030;DHT22;5055;52.054;8.524;2024-01-16T12:32:14;1.10;97.00
10030;DHT22;5055;52.054;8.524;2024-01-16T12:34:47;1.00;97.00
10030;DHT22;5055;52.054;8.524;2024-01-16T12:37:16;1.00;97.00
10030;DHT22;5055;52.054;8.524;2024-01-16T12:39:44;0.90;97.00
10030;DHT22;5055;52.054;8.524;2024-01-16T12:42:12;0.90;97.00
10030;DHT22;5055;52.054;8.524;2024-01-16T12:44:41;0.90;97.00
10030;DHT22;5055;52.054;8.524;2024-01-16T12:47:09;0.90;97.00
10030;DHT22;5055;52.054;8.524;2024-01-16T12:49:41;0.90;97.00
10030;DHT22;5055;52.054;8.524;2024-01-16T12:52:18;0.90;97.00
10030;DHT22;5055;52.054;8.524;2024-01-16T12:54:48;0.90;97.00
10030;DHT22;5055;52.054;8.524;2024-01-16T12:57:17;0.90;97.00
10030;DHT22;5055;52.054;8.524;2024-01-16T12:59:47;0.90;97.00
10030;DHT22;5055;52.054;8.524;2024-01-16T13:02:22;0.90;97.00
10030;DHT22;5055;52.054;8.524;2024-01-16T13:05:00;0.90;97.00
10030;DHT22;5055;52.054;8.524;2024-01-16T13:07:30;0.90;97.00
10030;DHT22;5055;52.054;8.524;2024-01-16T13:10:07;1.00;97.00
10030;DHT22;5055;52.054;8.524;2024-01-16T13:12:36;1.00;97.00
10030;DHT22;5055;52.054;8.524;2024-01-16T13:15:05;0.90;97.00
10030;DHT22;5055;52.054;8.524;2024-01-16T13:17:33;0.90;97.00
10030;DHT22;5055;52.054;8.524;2024-01-16T13:20:05;0.90;97.00
10030;DHT22;5055;52.054;8.524;2024-01-16T13:22:36;0.90;97.00
10030;DHT22;5055;52.054;8.524;2024-01-16T13:25:13;0.90;97.00
10030;DHT22;5055;52.054;8.524;2024-01-16T13:27:42;0.90;97.00
10030;DHT22;5055;52.054;8.524;2024-01-16T13:30:11;0.90;97.00
10030;DHT22;5055;52.054;8.524;2024-01-16T13:32:42;0.90;97.00
10030;DHT22;5055;52.054;8.524;2024-01-16T13:35:12;0.90;97.00
10030;DHT22;5055;52.054;8.524;2024-01-16T13:37:40;1.00;97.00
10030;DHT22;5055;52.054;8.524;2024-01-16T13:40:08;1.00;97.00
10030;DHT22;5055;52.054;8.524;2024-01-16T13:42:38;1.00;97.00
10030;DHT22;5055;52.054;8.524;2024-01-16T13:45:07;1.00;97.00
10030;DHT22;5055;52.054;8.524;2024-01-16T13:47:36;1.00;97.00
10030;DHT22;5055;52.054;8.524;2024-01-16T13:50:07;1.00;97.00
10030;DHT22;5055;52.054;8.524;2024-01-16T13:52:36;1.00;97.00
10030;DHT22;5055;52.054;8.524;2024-01-16T13:55:07;1.00;97.00
10030;DHT22;5055;52.054;8.524;2024-01-16T13:57:35;1.00;97.00
10030;DHT22;5055;52.054;8.524;2024-01-16T14:00:05;1.00;97.00
10030;DHT22;5055;52.054;8.524;2024-01-16T14:02:34;1.00;97.00
10030;DHT22;5055;52.054;8.524;2024-01-16T14:05:04;1.00;97.00
10030;DHT22;5055;52.054;8.524;2024-01-16T14:07:33;1.00;97.00
10030;DHT22;5055;52.054;8.524;2024-01-16T14:10:03;1.00;97.00
10030;DHT22;5055;52.054;8.524;2024-01-16T14:12:33;1.00;97.00
10030;DHT22;5055;52.054;8.524;2024-01-16T14:15:03;1.10;97.00
10030;DHT22;5055;52.054;8.524;2024-01-16T14:17:38;1.10;97.00
10030;DHT22;5055;52.054;8.524;2024-01-16T14:20:07;1.00;97.00
10030;DHT22;5055;52.054;8.524;2024-01-16T14:22:38;1.00;97.00
10030;DHT22;5055;52.054;8.524;2024-01-16T14:25:09;1.00;97.00
10030;DHT22;5055;52.054;8.524;2024-01-16T14:27:39;1.00;97.00
10030;DHT22;5055;52.054;8.524;2024-01-16T14:30:10;1.00;97.00
10030;DHT22;5055;52.054;8.524;2024-01-16T14:32:41;1.00;97.00
10030;DHT22;5055;52.054;8.524;2024-01-16T14:35:10;0.90;97.00
10030;DHT22;5055;52.054;8.524;2024-01-16T14:37:40;0.90;97.00
10030;DHT22;5055;52.054;8.524;2024-01-16T14:40:10;0.90;97.00
10030;DHT22;5055;52.054;8.524;2024-01-16T14:42:42;0.80;97.00
10030;DHT22;5055;52.054;8.524;2024-01-16T14:45:12;0.90;97.00
10030;DHT22;5055;52.054;8.524;2024-01-16T14:47:40;0.80;97.00
10030;DHT22;5055;52.054;8.524;2024-01-16T14:50:09;0.90;97.00
10030;DHT22;5055;52.054;8.524;2024-01-16T14:52:39;0.90;97.00
10030;DHT22;5055;52.054;8.524;2024-01-16T14:55:10;0.90;97.00
10030;DHT22;5055;52.054;8.524;2024-01-16T14:57:40;0.90;97.00
10030;DHT22;5055;52.054;8.524;2024-01-16T15:00:12;0.90;97.00
10030;DHT22;5055;52.054;8.524;2024-01-16T15:02:46;0.90;97.00
10030;DHT22;5055;52.054;8.524;2024-01-16T15:05:15;1.00;97.00
10030;DHT22;5055;52.054;8.524;2024-01-16T15:07:44;1.00;97.00
10030;DHT22;5055;52.054;8.524;2024-01-16T15:10:14;1.00;97.00
10030;DHT22;5055;52.054;8.524;2024-01-16T15:12:44;1.00;97.00
10030;DHT22;5055;52.054;8.524;2024-01-16T15:15:13;1.00;97.00
10030;DHT22;5055;52.054;8.524;2024-01-16T15:17:43;1.00;97.00
10030;DHT22;5055;52.054;8.524;2024-01-16T15:20:12;1.00;97.00
10030;DHT22;5055;52.054;8.524;2024-01-16T15:22:41;1.00;97.00
10030;DHT22;5055;52.054;8.524;2024-01-16T15:25:14;1.00;97.00
10030;DHT22;5055;52.054;8.524;2024-01-16T15:27:43;1.00;97.00
10030;DHT22;5055;52.054;8.524;2024-01-16T15:30:13;1.00;97.00
10030;DHT22;5055;52.054;8.524;2024-01-16T15:32:41;1.00;97.00
10030;DHT22;5055;52.054;8.524;2024-01-16T15:35:10;1.00;97.00
10030;DHT22;5055;52.054;8.524;2024-01-16T15:37:38;1.00;97.00
10030;DHT22;5055;52.054;8.524;2024-01-16T15:40:08;1.00;97.00
10030;DHT22;5055;52.054;8.524;2024-01-16T15:42:39;1.00;97.00
10030;DHT22;5055;52.054;8.524;2024-01-16T15:45:09;1.00;97.00
10030;DHT22;5055;52.054;8.524;2024-01-16T15:47:38;1.00;97.00
10030;DHT22;5055;52.054;8.524;2024-01-16T15:50:09;1.00;97.00
10030;DHT22;5055;52.054;8.524;2024-01-16T15:52:37;1.00;97.00
10030;DHT22;5055;52.054;8.524;2024-01-16T15:55:06;1.00;97.00
10030;DHT22;5055;52.054;8.524;2024-01-16T15:57:34;1.00;97.00
10030;DHT22;5055;52.054;8.524;2024-01-16T16:00:05;1.00;97.00
10030;DHT22;5055;52.054;8.524;2024-01-16T16:02:36;1.10;97.00
10030;DHT22;5055;52.054;8.524;2024-01-16T16:05:06;1.10;97.00
10030;DHT22;5055;52.054;8.524;2024-01-16T16:07:35;1.00;97.00
10030;DHT22;5055;52.054;8.524;2024-01-16T16:10:03;1.10;97.00
10030;DHT22;5055;52.054;8.524;2024-01-16T16:12:32;1.00;97.00
10030;DHT22;5055;52.054;8.524;2024-01-16T16:15:00;1.00;97.00
10030;DHT22;5055;52.054;8.524;2024-01-16T16:17:30;1.00;97.00
10030;DHT22;5055;52.054;8.524;2024-01-16T16:19:58;0.90;97.00